Time;durP1;ratioP1;P1;durP2;ratioP2;P2;SDS_P1;SDS_P2;PMS_P1;PMS_P2;Temp;Humidity;BMP_temperature;BMP_pressure;BME280_temperature;BME280_humidity;BME280_pressure;Samples;Min_cycle;Max_cycle;Signal;HPM_P1;HPM_P2
2023/07/23 00:00:39;;;;;;;6.77;3.80;;;18.10;99.90;;;;;;5094590;28;20491;-78
2023/07/23 00:03:07;;;;;;;4.30;3.90;;;18.20;99.90;;;;;;5094822;28;20541;-77
2023/07/23 00:05:34;;;;;;;5.60;3.63;;;18.10;99.90;;;;;;5094274;28;20816;-77
2023/07/23 00:08:02;;;;;;;4.73;4.17;;;18.10;99.90;;;;;;5095554;28;21052;-78
2023/07/23 00:10:29;;;;;;;5.13;4.63;;;18.10;99.90;;;;;;5076594;28;20459;-77
2023/07/23 00:12:56;;;;;;;6.30;4.43;;;18.10;99.90;;;;;;5081746;28;20461;-77
2023/07/23 00:15:23;;;;;;;5.70;3.80;;;18.10;99.90;;;;;;5094993;28;20460;-78
2023/07/23 00:17:50;;;;;;;7.13;3.83;;;18.00;99.90;;;;;;5086605;28;20461;-77
2023/07/23 00:20:16;;;;;;;6.33;3.27;;;17.90;99.90;;;;;;5074668;28;20982;-77
2023/07/23 00:22:43;;;;;;;4.30;3.40;;;18.00;99.90;;;;;;5092630;28;20442;-78
2023/07/23 00:25:11;;;;;;;4.90;3.53;;;17.90;99.90;;;;;;5095650;28;20455;-78
2023/07/23 00:27:38;;;;;;;5.47;3.53;;;17.90;99.90;;;;;;5092526;28;20471;-77
2023/07/23 00:30:06;;;;;;;6.27;3.50;;;17.90;99.90;;;;;;5094316;28;20546;-77
2023/07/23 00:32:33;;;;;;;5.20;3.87;;;17.90;99.90;;;;;;5080793;28;20475;-78
2023/07/23 00:35:00;;;;;;;6.40;3.97;;;17.90;99.90;;;;;;5075136;28;20451;-77
2023/07/23 00:37:27;;;;;;;5.00;3.40;;;17.80;99.90;;;;;;5074202;28;20951;-77
2023/07/23 00:39:55;;;;;;;5.77;3.60;;;17.80;99.90;;;;;;5081259;28;20528;-78
2023/07/23 00:42:23;;;;;;;6.40;3.70;;;17.80;99.90;;;;;;5079799;28;20473;-78
2023/07/23 00:44:50;;;;;;;4.73;3.10;;;17.80;99.90;;;;;;5092368;28;20450;-78
2023/07/23 00:47:18;;;;;;;4.40;3.20;;;17.80;99.90;;;;;;5079524;28;20954;-76
2023/07/23 00:49:45;;;;;;;6.07;4.00;;;17.70;99.90;;;;;;5083720;28;20954;-78
2023/07/23 00:52:13;;;;;;;3.70;3.03;;;17.70;99.90;;;;;;5086632;28;21016;-77
2023/07/23 00:54:40;;;;;;;3.23;2.80;;;17.70;99.90;;;;;;5074335;28;20461;-78
2023/07/23 00:57:08;;;;;;;5.47;3.77;;;17.70;99.90;;;;;;5073711;28;20460;-76
2023/07/23 00:59:36;;;;;;;4.10;3.20;;;17.70;99.90;;;;;;5082308;28;20481;-77
2023/07/23 01:02:03;;;;;;;6.10;3.57;;;17.70;99.90;;;;;;5092408;28;20464;-77
2023/07/23 01:04:30;;;;;;;5.13;3.70;;;17.70;99.90;;;;;;5094719;28;20540;-78
2023/07/23 01:07:00;;;;;;;6.27;3.80;;;17.70;99.90;;;;;;5084350;28;20452;-78
2023/07/23 01:09:28;;;;;;;4.60;3.57;;;17.80;99.90;;;;;;5085476;28;20476;-78
2023/07/23 01:11:55;;;;;;;5.83;3.77;;;17.80;99.90;;;;;;5095314;28;20516;-78
2023/07/23 01:14:22;;;;;;;5.93;3.83;;;17.70;99.90;;;;;;5083289;28;20451;-78
2023/07/23 01:16:51;;;;;;;7.50;3.00;;;17.70;99.90;;;;;;5081986;28;20453;-78
2023/07/23 01:19:17;;;;;;;5.73;3.53;;;17.70;99.90;;;;;;5085825;28;20475;-79
2023/07/23 01:21:44;;;;;;;5.57;3.50;;;17.70;99.90;;;;;;5074429;28;20474;-78
2023/07/23 01:24:12;;;;;;;5.80;3.50;;;17.70;99.90;;;;;;5075151;28;20835;-78
2023/07/23 01:26:39;;;;;;;8.93;3.70;;;17.70;99.90;;;;;;5085354;28;20514;-78
2023/07/23 01:29:06;;;;;;;6.20;3.70;;;17.70;99.90;;;;;;5082412;28;20441;-77
2023/07/23 01:31:33;;;;;;;6.40;3.80;;;17.70;99.90;;;;;;5088967;28;20474;-78
2023/07/23 01:34:05;;;;;;;5.73;3.50;;;17.70;99.90;;;;;;5073552;28;20481;-78
2023/07/23 01:36:32;;;;;;;5.50;3.63;;;17.70;99.90;;;;;;5080126;28;20867;-78
2023/07/23 01:39:01;;;;;;;4.40;3.60;;;17.70;99.90;;;;;;5084443;28;20958;-78
2023/07/23 01:41:29;;;;;;;4.60;3.20;;;17.70;99.90;;;;;;5093679;28;20994;-78
2023/07/23 01:43:58;;;;;;;4.50;3.63;;;17.70;99.90;;;;;;5091465;28;20450;-78
2023/07/23 01:46:25;;;;;;;4.80;3.90;;;17.70;99.90;;;;;;5073232;28;20452;-78
2023/07/23 01:48:52;;;;;;;5.60;4.43;;;17.70;99.90;;;;;;5090080;28;20822;-78
2023/07/23 01:51:19;;;;;;;5.93;4.30;;;17.70;99.90;;;;;;5092447;28;20561;-76
2023/07/23 01:53:45;;;;;;;4.63;4.20;;;17.70;99.90;;;;;;5092537;28;20460;-77
2023/07/23 01:56:13;;;;;;;6.43;4.40;;;17.70;99.90;;;;;;5091302;28;20531;-78
2023/07/23 01:58:41;;;;;;;5.40;3.30;;;17.70;99.90;;;;;;5092497;28;20462;-77
2023/07/23 02:01:07;;;;;;;4.73;4.23;;;17.70;99.90;;;;;;5091785;28;20485;-77
2023/07/23 02:03:34;;;;;;;3.97;3.57;;;17.70;99.90;;;;;;5090658;28;20811;-78
2023/07/23 02:06:03;;;;;;;4.70;3.97;;;17.70;99.90;;;;;;5072131;28;20446;-77
2023/07/23 02:08:30;;;;;;;4.30;3.70;;;17.70;99.90;;;;;;5073834;28;20454;-78
2023/07/23 02:11:01;;;;;;;4.63;4.23;;;17.70;99.90;;;;;;5092129;28;20496;-77
2023/07/23 02:13:28;;;;;;;6.90;4.93;;;17.70;99.90;;;;;;5081347;28;20451;-78
2023/07/23 02:15:56;;;;;;;6.07;3.87;;;17.70;99.90;;;;;;5071296;28;20459;-77
2023/07/23 02:18:23;;;;;;;3.87;3.47;;;17.70;99.90;;;;;;5071842;28;20458;-76
2023/07/23 02:20:50;;;;;;;9.37;5.10;;;17.60;99.90;;;;;;5088354;28;20487;-77
2023/07/23 02:23:17;;;;;;;4.67;4.17;;;17.60;99.90;;;;;;5072417;28;20462;-77
2023/07/23 02:25:44;;;;;;;6.37;4.67;;;17.60;99.90;;;;;;5079177;28;20448;-77
2023/07/23 02:28:11;;;;;;;5.00;4.27;;;17.60;90.90;;;;;;5090969;28;20453;-78
2023/07/23 02:30:38;;;;;;;5.23;3.77;;;17.60;94.90;;;;;;5091331;28;20470;-77
2023/07/23 02:33:06;;;;;;;5.67;4.23;;;17.60;70.80;;;;;;5086751;28;20816;-76
2023/07/23 02:35:36;;;;;;;5.90;4.50;;;17.60;53.50;;;;;;5091896;28;20446;-76
2023/07/23 02:38:03;;;;;;;5.40;4.57;;;17.60;74.00;;;;;;5071600;28;20987;-77
2023/07/23 02:40:33;;;;;;;5.00;4.27;;;17.60;50.50;;;;;;5091803;28;20489;-77
2023/07/23 02:43:00;;;;;;;6.20;4.27;;;17.60;44.60;;;;;;5081049;28;20448;-77
2023/07/23 02:45:28;;;;;;;4.47;3.80;;;17.60;34.60;;;;;;5072267;28;20573;-78
2023/07/23 02:47:55;;;;;;;5.30;4.23;;;17.60;26.50;;;;;;5081166;28;20450;-76
2023/07/23 02:50:25;;;;;;;6.60;4.33;;;17.60;15.10;;;;;;5089893;28;20444;-78
2023/07/23 02:52:52;;;;;;;6.30;5.00;;;17.60;1.00;;;;;;5080976;28;20962;-78
2023/07/23 02:55:19;;;;;;;4.53;4.00;;;17.70;1.00;;;;;;5089791;28;20446;-77
2023/07/23 02:57:46;;;;;;;5.33;4.37;;;17.70;1.00;;;;;;5076891;28;20539;-77
2023/07/23 03:00:13;;;;;;;5.70;4.40;;;17.70;1.00;;;;;;5072379;28;20500;-78
2023/07/23 03:02:40;;;;;;;7.20;3.87;;;17.60;1.00;;;;;;5072542;28;20478;-78
2023/07/23 03:05:08;;;;;;;8.33;4.40;;;17.60;1.00;;;;;;5071905;28;20459;-78
2023/07/23 03:07:36;;;;;;;5.93;4.30;;;17.70;1.00;;;;;;5075795;28;20466;-78
2023/07/23 03:10:03;;;;;;;6.07;4.13;;;17.70;1.00;;;;;;5076345;28;20447;-77
2023/07/23 03:12:30;;;;;;;6.17;4.00;;;17.70;1.00;;;;;;5079000;28;20473;-78
2023/07/23 03:14:57;;;;;;;7.43;3.87;;;17.60;1.00;;;;;;5093112;28;20452;-80
2023/07/23 03:17:24;;;;;;;7.33;4.70;;;17.50;1.00;;;;;;5074904;28;20454;-78
2023/07/23 03:19:51;;;;;;;5.80;4.57;;;17.60;1.00;;;;;;5090917;28;20489;-76
2023/07/23 03:22:18;;;;;;;5.00;3.80;;;17.60;1.00;;;;;;5090733;28;20473;-77
2023/07/23 03:24:47;;;;;;;6.17;4.67;;;17.60;1.00;;;;;;5098176;28;20449;-78
2023/07/23 03:27:13;;;;;;;5.80;4.80;;;17.60;99.90;;;;;;5096343;28;20561;-78
2023/07/23 03:29:40;;;;;;;5.37;4.70;;;17.70;1.00;;;;;;5098463;28;20456;-76
2023/07/23 03:32:07;;;;;;;6.47;4.10;;;17.70;1.00;;;;;;5096200;28;20475;-76
2023/07/23 03:34:34;;;;;;;5.10;4.00;;;17.70;1.00;;;;;;5098057;28;20458;-76
2023/07/23 03:37:01;;;;;;;5.37;4.33;;;17.70;99.90;;;;;;5096134;28;20480;-76
2023/07/23 03:39:28;;;;;;;5.30;3.60;;;17.80;1.00;;;;;;5079489;28;20461;-77
2023/07/23 03:41:56;;;;;;;5.63;4.40;;;17.70;1.00;;;;;;5098321;28;20477;-77
2023/07/23 03:44:23;;;;;;;4.77;3.57;;;17.70;1.00;;;;;;5098831;28;20547;-77
2023/07/23 03:47:02;;;;;;;6.00;4.50;;;17.80;1.00;;;;;;5094228;28;20528;-78
2023/07/23 03:49:29;;;;;;;5.73;4.57;;;17.80;1.00;;;;;;5078482;28;20442;-77
2023/07/23 03:51:55;;;;;;;5.70;4.33;;;17.70;1.00;;;;;;5077164;28;20474;-77
2023/07/23 03:54:22;;;;;;;8.57;4.40;;;17.70;1.00;;;;;;5080941;28;20568;-76
2023/07/23 03:56:49;;;;;;;4.50;4.00;;;17.70;99.90;;;;;;5080254;28;20457;-76
2023/07/23 03:59:17;;;;;;;5.50;4.07;;;17.70;99.90;;;;;;5079108;28;20449;-78
2023/07/23 04:01:44;;;;;;;5.93;3.73;;;17.80;1.00;;;;;;5091397;28;20488;-76
2023/07/23 04:04:11;;;;;;;5.30;4.53;;;17.80;99.90;;;;;;5077347;28;20462;-77
2023/07/23 04:06:37;;;;;;;5.30;4.10;;;17.80;99.90;;;;;;5076803;28;20838;-77
2023/07/23 04:09:04;;;;;;;7.40;4.73;;;17.80;99.90;;;;;;5079531;28;20460;-77
2023/07/23 04:11:31;;;;;;;6.27;4.13;;;17.80;99.90;;;;;;5097303;28;20477;-78
2023/07/23 04:13:58;;;;;;;6.00;3.90;;;17.80;99.90;;;;;;5094553;28;20453;-77
2023/07/23 04:16:26;;;;;;;6.70;5.13;;;17.80;99.90;;;;;;5096903;28;20964;-77
2023/07/23 04:18:54;;;;;;;7.13;4.93;;;17.90;99.90;;;;;;5092431;28;20459;-77
2023/07/23 04:21:22;;;;;;;5.27;3.50;;;18.00;99.90;;;;;;5096668;28;20486;-78
2023/07/23 04:23:50;;;;;;;6.97;4.73;;;17.90;1.00;;;;;;5095035;28;20478;-79
2023/07/23 04:26:18;;;;;;;4.10;3.33;;;18.00;1.00;;;;;;5095832;28;20457;-76
2023/07/23 04:28:46;;;;;;;5.10;4.23;;;18.10;99.90;;;;;;5095386;28;20855;-76
2023/07/23 04:31:13;;;;;;;5.60;3.87;;;18.20;99.90;;;;;;5092665;28;20502;-77
2023/07/23 04:33:41;;;;;;;5.73;4.80;;;18.20;1.00;;;;;;5083020;28;20450;-77
2023/07/23 04:36:08;;;;;;;5.50;4.10;;;18.30;1.00;;;;;;5093064;28;20450;-78
2023/07/23 04:38:36;;;;;;;5.30;4.13;;;18.30;28.60;;;;;;5080575;28;20446;-78
2023/07/23 04:41:03;;;;;;;5.50;3.53;;;18.40;99.90;;;;;;5084352;28;20497;-77
2023/07/23 04:43:30;;;;;;;4.37;3.10;;;18.50;1.00;;;;;;5083557;28;20461;-78
2023/07/23 04:45:57;;;;;;;4.80;3.60;;;18.60;99.90;;;;;;5072271;28;20966;-78
2023/07/23 04:48:23;;;;;;;5.17;3.40;;;18.60;99.90;;;;;;5073601;28;20446;-77
2023/07/23 04:50:57;;;;;;;6.33;4.07;;;18.70;99.90;;;;;;5063810;22;1057117;-78
2023/07/23 04:53:24;;;;;;;6.30;3.80;;;18.80;99.90;;;;;;5045436;28;20216;-79
2023/07/23 04:55:52;;;;;;;6.83;3.60;;;18.80;99.90;;;;;;5054415;28;20457;-79
2023/07/23 04:58:21;;;;;;;5.53;3.50;;;18.80;99.90;;;;;;5053646;28;20452;-79
2023/07/23 05:00:48;;;;;;;5.37;3.97;;;18.80;99.90;;;;;;5053363;28;20487;-77
2023/07/23 05:03:15;;;;;;;4.43;3.30;;;18.90;99.90;;;;;;5056876;28;20460;-79
2023/07/23 05:05:46;;;;;;;10.47;3.80;;;18.90;99.90;;;;;;5055404;28;20462;-78
2023/07/23 05:08:14;;;;;;;5.10;3.30;;;19.00;99.90;;;;;;5055360;28;20456;-79
2023/07/23 05:10:41;;;;;;;5.20;3.10;;;19.00;99.90;;;;;;5056454;28;20456;-80
2023/07/23 05:13:08;;;;;;;4.80;3.70;;;19.10;99.90;;;;;;5040913;28;20515;-78
2023/07/23 05:15:35;;;;;;;4.73;3.37;;;19.10;33.20;;;;;;5038906;28;20452;-79
2023/07/23 05:18:02;;;;;;;5.30;3.33;;;19.10;90.90;;;;;;5040405;28;20454;-80
2023/07/23 05:20:28;;;;;;;4.10;3.33;;;19.20;1.00;;;;;;5056020;28;20493;-80
2023/07/23 05:22:56;;;;;;;4.60;3.33;;;19.10;99.90;;;;;;5046310;28;20472;-81
2023/07/23 05:25:24;;;;;;;4.17;3.17;;;19.10;1.00;;;;;;5058666;28;20497;-80
2023/07/23 05:27:51;;;;;;;6.67;2.83;;;19.20;1.00;;;;;;5041270;28;20445;-81
2023/07/23 05:30:18;;;;;;;4.23;3.10;;;19.20;12.30;;;;;;5043794;28;20452;-80
2023/07/23 05:32:45;;;;;;;7.20;3.67;;;19.30;86.60;;;;;;5060690;28;20464;-78
2023/07/23 05:35:13;;;;;;;5.07;4.03;;;19.30;99.90;;;;;;5050430;28;20994;-79
2023/07/23 05:37:40;;;;;;;10.83;3.43;;;19.30;99.90;;;;;;5059668;28;20477;-81
2023/07/23 05:40:08;;;;;;;3.70;3.00;;;19.30;1.00;;;;;;5059095;28;20462;-82
2023/07/23 05:42:37;;;;;;;6.90;3.13;;;19.40;1.00;;;;;;5043621;28;21012;-82
2023/07/23 05:45:06;;;;;;;5.30;2.90;;;19.40;1.00;;;;;;5039061;28;20440;-80
2023/07/23 05:47:33;;;;;;;3.77;2.60;;;19.40;1.00;;;;;;5042798;28;20455;-83
2023/07/23 05:49:59;;;;;;;4.50;3.13;;;19.40;1.00;;;;;;5050640;28;20539;-82
2023/07/23 05:52:26;;;;;;;4.03;2.90;;;19.40;1.00;;;;;;5040637;28;20548;-83
2023/07/23 05:54:53;;;;;;;4.50;2.30;;;19.40;1.00;;;;;;5040406;28;20517;-82
2023/07/23 05:57:20;;;;;;;3.60;2.73;;;19.40;1.00;;;;;;5038121;28;20463;-81
2023/07/23 05:59:48;;;;;;;3.80;2.63;;;19.50;1.00;;;;;;5055693;28;20846;-82
2023/07/23 06:02:15;;;;;;;4.27;2.67;;;19.50;17.60;;;;;;5046485;28;20971;-82
2023/07/23 06:04:41;;;;;;;4.17;2.70;;;19.50;99.90;;;;;;5038384;28;20456;-82
2023/07/23 06:07:08;;;;;;;8.00;3.17;;;19.50;99.90;;;;;;5051385;28;20448;-83
2023/07/23 06:09:35;;;;;;;5.30;2.63;;;19.50;1.00;;;;;;5055440;28;20443;-82
2023/07/23 06:12:02;;;;;;;4.67;2.50;;;19.50;1.00;;;;;;5055104;28;20562;-83
2023/07/23 06:14:29;;;;;;;3.50;2.10;;;19.50;1.00;;;;;;5055100;28;20883;-81
2023/07/23 06:16:57;;;;;;;3.73;2.20;;;19.60;1.00;;;;;;5037532;28;20852;-81
2023/07/23 06:19:24;;;;;;;5.33;2.23;;;19.60;1.00;;;;;;5035055;28;20461;-83
2023/07/23 06:21:50;;;;;;;3.70;2.77;;;19.70;1.00;;;;;;5035192;28;20546;-84
2023/07/23 06:24:17;;;;;;;3.17;1.93;;;19.70;1.00;;;;;;5036352;28;20831;-83
2023/07/23 06:26:44;;;;;;;5.60;2.50;;;19.70;1.00;;;;;;5035914;28;20453;-81
2023/07/23 06:29:11;;;;;;;4.70;2.57;;;19.80;1.00;;;;;;5046470;28;20448;-80
2023/07/23 06:31:38;;;;;;;4.07;2.40;;;19.80;1.00;;;;;;5050977;28;20478;-82
2023/07/23 06:34:06;;;;;;;3.90;2.50;;;19.90;1.00;;;;;;5055249;28;20464;-83
2023/07/23 06:36:33;;;;;;;4.17;2.30;;;19.90;1.00;;;;;;5043462;28;20472;-82
2023/07/23 06:38:59;;;;;;;7.83;3.10;;;19.90;1.00;;;;;;5050290;28;20459;-83
2023/07/23 06:41:27;;;;;;;4.47;2.10;;;19.90;1.00;;;;;;5053795;28;20503;-81
2023/07/23 06:43:54;;;;;;;4.73;2.63;;;20.00;1.00;;;;;;5058263;28;20455;-81
2023/07/23 06:46:21;;;;;;;3.33;2.50;;;20.10;1.00;;;;;;5056435;28;20456;-84
2023/07/23 06:48:48;;;;;;;6.33;2.73;;;20.20;1.00;;;;;;5059461;28;20451;-83
2023/07/23 06:51:16;;;;;;;3.63;2.57;;;20.20;1.00;;;;;;5057468;28;20487;-83
2023/07/23 06:53:44;;;;;;;3.10;2.27;;;20.20;1.00;;;;;;5056611;28;20455;-83
2023/07/23 06:56:12;;;;;;;9.03;2.40;;;20.30;1.00;;;;;;5042082;28;20452;-83
2023/07/23 06:58:39;;;;;;;3.47;2.00;;;20.20;1.00;;;;;;5049614;28;20463;-82
2023/07/23 07:01:08;;;;;;;5.97;2.43;;;20.20;1.00;;;;;;5057900;28;20498;-83
2023/07/23 07:03:35;;;;;;;4.80;3.00;;;20.20;1.00;;;;;;5052175;28;20468;-82
2023/07/23 07:06:02;;;;;;;4.13;2.30;;;20.30;1.00;;;;;;5044833;28;20825;-81
2023/07/23 07:08:30;;;;;;;7.73;2.50;;;20.20;1.00;;;;;;5047900;28;20457;-81
2023/07/23 07:10:59;;;;;;;3.90;2.23;;;20.20;1.00;;;;;;5057364;28;20455;-82
2023/07/23 07:13:27;;;;;;;3.50;2.57;;;20.20;1.00;;;;;;5057303;28;20448;-83
2023/07/23 07:15:53;;;;;;;4.90;2.67;;;20.10;1.00;;;;;;5056329;28;20562;-82
2023/07/23 07:18:20;;;;;;;5.37;2.40;;;20.10;1.00;;;;;;5057155;28;20523;-83
2023/07/23 07:20:54;;;;;;;4.60;2.80;;;20.10;1.00;;;;;;5057081;28;20451;-82
2023/07/23 07:23:21;;;;;;;4.00;2.43;;;20.30;1.00;;;;;;5057040;28;20460;-83
2023/07/23 07:25:49;;;;;;;3.50;2.30;;;20.40;33.50;;;;;;5053669;28;20471;-81
2023/07/23 07:28:16;;;;;;;4.37;2.77;;;20.40;1.00;;;;;;5041522;28;20453;-81
2023/07/23 07:30:43;;;;;;;3.90;3.03;;;20.40;1.00;;;;;;5047694;28;20459;-82
2023/07/23 07:33:10;;;;;;;4.70;2.70;;;20.40;1.00;;;;;;5056890;28;20551;-83
2023/07/23 07:35:36;;;;;;;4.43;2.63;;;20.40;1.00;;;;;;5039978;28;20470;-83
2023/07/23 07:38:03;;;;;;;4.50;2.20;;;20.40;1.00;;;;;;5054412;28;20528;-80
2023/07/23 07:40:31;;;;;;;3.63;2.50;;;20.50;1.00;;;;;;5064929;28;20458;-82
2023/07/23 07:42:59;;;;;;;3.77;2.57;;;20.50;1.00;;;;;;5053471;28;20768;-83
2023/07/23 07:45:25;;;;;;;4.70;2.47;;;20.40;99.90;;;;;;5056785;28;20563;-83
2023/07/23 07:47:52;;;;;;;4.10;2.63;;;20.40;1.00;;;;;;5056468;28;20452;-81
2023/07/23 07:50:19;;;;;;;4.37;2.90;;;20.40;99.90;;;;;;5056440;28;20444;-81
2023/07/23 07:52:47;;;;;;;4.20;2.50;;;20.40;1.00;;;;;;5056866;28;20562;-82
2023/07/23 07:55:14;;;;;;;5.40;2.57;;;20.20;1.00;;;;;;5049662;28;20470;-82
2023/07/23 07:57:42;;;;;;;5.60;2.90;;;20.10;99.90;;;;;;5041879;28;20452;-81
2023/07/23 08:00:11;;;;;;;3.50;2.37;;;19.90;99.90;;;;;;5034868;28;20989;-81
2023/07/23 08:02:39;;;;;;;9.87;2.67;;;19.80;99.90;;;;;;5047730;28;20493;-81
2023/07/23 08:05:07;;;;;;;5.60;2.63;;;19.70;99.90;;;;;;5055915;28;20456;-80
2023/07/23 08:07:35;;;;;;;3.73;2.50;;;19.60;99.90;;;;;;5054778;28;20463;-82
2023/07/23 08:10:03;;;;;;;5.93;2.63;;;19.60;99.90;;;;;;5048931;28;20539;-81
2023/07/23 08:12:30;;;;;;;5.70;2.87;;;19.60;1.00;;;;;;5045785;28;20482;-81
2023/07/23 08:14:59;;;;;;;4.60;2.63;;;19.60;1.00;;;;;;5054991;28;20448;-79
2023/07/23 08:17:28;;;;;;;5.43;2.70;;;19.70;1.00;;;;;;5061040;28;20473;-79
2023/07/23 08:19:55;;;;;;;7.87;3.40;;;19.70;1.00;;;;;;5059585;28;20448;-83
2023/07/23 08:22:22;;;;;;;6.20;3.00;;;19.80;99.90;;;;;;5059378;28;20490;-82
2023/07/23 08:24:50;;;;;;;4.60;2.47;;;19.80;99.90;;;;;;5058701;28;20450;-82
2023/07/23 08:27:22;;;;;;;4.67;2.97;;;19.80;99.90;;;;;;5040428;28;20536;-82
2023/07/23 08:29:49;;;;;;;4.70;2.70;;;19.80;99.90;;;;;;5048610;28;20443;-79
2023/07/23 08:32:19;;;;;;;5.27;2.93;;;19.80;99.90;;;;;;5042344;28;20472;-81
2023/07/23 08:34:47;;;;;;;4.77;2.40;;;19.90;1.00;;;;;;5042418;28;20903;-82
2023/07/23 08:37:15;;;;;;;3.30;2.40;;;19.90;99.90;;;;;;5060782;28;20939;-82
2023/07/23 08:39:42;;;;;;;4.30;2.80;;;20.10;99.90;;;;;;5059053;28;20452;-83
2023/07/23 08:42:43;;;;;;;9.33;3.23;;;20.10;99.90;;;;;;5061636;28;21015;-82
2023/07/23 08:45:41;;;;;;;4.97;2.50;;;20.10;99.90;;;;;;5045284;28;20441;-83
2023/07/23 08:48:16;;;;;;;4.10;2.20;;;20.10;99.90;;;;;;5060280;28;20446;-84
2023/07/23 08:50:46;;;;;;;4.00;2.67;;;20.10;99.90;;;;;;5059315;28;20499;-84
2023/07/23 08:53:15;;;;;;;4.50;3.20;;;19.90;99.90;;;;;;5058535;28;20447;-85
2023/07/23 08:55:43;;;;;;;5.90;3.30;;;20.00;1.00;;;;;;5048950;28;20454;-84
2023/07/23 08:58:14;;;;;;;5.67;2.83;;;20.00;99.90;;;;;;5058275;28;20452;-84
2023/07/23 09:00:43;;;;;;;4.90;2.07;;;20.00;1.00;;;;;;5059164;28;20711;-83
2023/07/23 09:03:12;;;;;;;5.37;3.03;;;19.90;99.90;;;;;;5058390;28;20502;-83
2023/07/23 09:05:40;;;;;;;3.53;2.57;;;19.60;99.90;;;;;;5049072;28;20460;-83
2023/07/23 09:08:08;;;;;;;4.67;2.73;;;19.40;10.60;;;;;;5055828;28;20457;-84
2023/07/23 09:10:35;;;;;;;3.80;2.93;;;19.40;99.90;;;;;;5053957;28;20452;-83
2023/07/23 09:13:10;;;;;;;3.83;3.00;;;19.50;99.90;;;;;;5043941;28;20483;-84
2023/07/23 09:15:37;;;;;;;4.17;3.30;;;19.60;99.90;;;;;;5049306;28;20468;-83
2023/07/23 09:18:04;;;;;;;4.60;3.30;;;19.50;1.00;;;;;;5061198;28;20443;-83
2023/07/23 09:20:31;;;;;;;4.83;3.27;;;19.60;99.90;;;;;;5058125;28;20530;-84
2023/07/23 09:23:05;;;;;;;4.30;3.03;;;19.60;99.90;;;;;;5061480;28;20488;-84
2023/07/23 09:25:34;;;;;;;6.30;3.87;;;19.60;99.90;;;;;;5060702;28;20448;-83
2023/07/23 09:28:01;;;;;;;4.83;3.37;;;19.50;99.90;;;;;;5055770;28;20892;-81
2023/07/23 09:30:28;;;;;;;4.90;3.30;;;19.20;99.90;;;;;;5056498;28;20462;-83
2023/07/23 09:32:59;;;;;;;3.60;3.00;;;19.00;1.00;;;;;;5056789;28;20456;-83
2023/07/23 09:35:26;;;;;;;4.63;3.40;;;18.90;1.00;;;;;;5040027;28;20957;-82
2023/07/23 09:37:57;;;;;;;3.13;2.67;;;18.80;1.00;;;;;;5044237;28;20484;-82
2023/07/23 09:40:35;;;;;;;3.63;3.03;;;18.70;1.00;;;;;;5062385;28;20481;-79
2023/07/23 09:43:02;;;;;;;5.17;3.33;;;18.40;1.00;;;;;;5063128;28;20487;-81
2023/07/23 09:45:31;;;;;;;6.33;3.70;;;18.40;12.10;;;;;;5060306;28;20485;-82
2023/07/23 09:47:59;;;;;;;4.07;2.90;;;18.40;99.90;;;;;;5043991;28;20451;-81
2023/07/23 09:50:27;;;;;;;4.13;3.60;;;18.40;99.90;;;;;;5037537;28;20513;-81
2023/07/23 09:52:53;;;;;;;3.77;2.83;;;18.30;99.90;;;;;;5049754;28;20479;-80
2023/07/23 09:55:21;;;;;;;3.70;3.03;;;18.40;99.90;;;;;;5045096;28;20477;-81
2023/07/23 09:57:50;;;;;;;4.40;3.50;;;18.40;99.90;;;;;;5055765;28;20456;-81
2023/07/23 10:00:17;;;;;;;4.30;3.53;;;18.50;99.90;;;;;;5055462;28;20448;-83
2023/07/23 10:02:48;;;;;;;4.70;3.57;;;18.50;99.90;;;;;;5056996;28;20492;-83
2023/07/23 10:05:16;;;;;;;7.20;3.27;;;18.50;99.90;;;;;;5041567;28;20552;-81
2023/07/23 10:07:45;;;;;;;5.00;3.80;;;18.50;99.90;;;;;;5037845;28;20460;-82
2023/07/23 10:10:13;;;;;;;4.70;3.37;;;18.50;99.90;;;;;;5038499;28;20567;-83
2023/07/23 10:12:40;;;;;;;4.63;3.53;;;18.70;99.90;;;;;;5056703;28;20535;-82
2023/07/23 10:15:10;;;;;;;5.23;3.30;;;18.80;99.90;;;;;;5057581;28;20456;-82
2023/07/23 10:17:41;;;;;;;3.97;3.00;;;18.70;99.90;;;;;;5056136;28;20439;-82
2023/07/23 10:20:10;;;;;;;4.87;3.30;;;19.00;99.90;;;;;;5043054;28;20444;-83
2023/07/23 10:22:38;;;;;;;3.80;3.20;;;18.90;99.90;;;;;;5034641;28;20519;-81
2023/07/23 10:25:23;;;;;;;4.17;2.97;;;18.90;99.90;;;;;;5035687;28;20479;-82
2023/07/23 10:27:56;;;;;;;4.23;3.27;;;18.90;99.90;;;;;;5035588;28;20429;-83
2023/07/23 10:30:26;;;;;;;5.77;2.83;;;18.80;99.90;;;;;;5037842;28;20994;-81
2023/07/23 10:33:30;;;;;;;3.87;3.47;;;18.80;99.90;;;;;;5033816;28;20467;-81
2023/07/23 10:36:02;;;;;;;4.63;3.57;;;18.70;99.90;;;;;;4972429;28;20561;-82
2023/07/23 10:38:30;;;;;;;4.63;3.47;;;18.70;99.90;;;;;;5025029;28;20528;-82
2023/07/23 10:40:57;;;;;;;4.53;3.50;;;18.80;99.90;;;;;;5040200;28;20458;-82
2023/07/23 10:43:25;;;;;;;3.77;3.33;;;18.90;99.90;;;;;;5045746;28;20472;-81
2023/07/23 10:46:03;;;;;;;4.93;3.47;;;18.70;99.90;;;;;;5033703;28;20457;-82
2023/07/23 10:48:42;;;;;;;4.13;3.67;;;18.80;99.90;;;;;;5033415;28;20498;-82
2023/07/23 10:53:42;;;;;;;4.57;3.60;;;18.80;99.90;;;;;;5076316;22;20539;-82
2023/07/23 10:56:26;;;;;;;4.53;3.53;;;18.90;99.90;;;;;;5047615;28;20450;-85
2023/07/23 10:59:04;;;;;;;4.23;3.47;;;18.90;99.90;;;;;;5052466;28;20480;-83
2023/07/23 11:01:35;;;;;;;4.50;3.67;;;19.00;99.90;;;;;;5049295;28;20513;-84
2023/07/23 11:04:09;;;;;;;6.60;3.97;;;18.90;99.90;;;;;;5040851;28;20477;-82
2023/07/23 11:06:35;;;;;;;5.03;3.60;;;19.10;99.90;;;;;;5041048;28;20449;-84
2023/07/23 11:09:10;;;;;;;4.03;3.40;;;19.30;99.90;;;;;;5038662;28;20474;-83
2023/07/23 11:11:40;;;;;;;5.70;3.40;;;19.50;99.90;;;;;;5037665;28;20476;-83
2023/07/23 11:14:18;;;;;;;4.23;3.20;;;19.60;99.90;;;;;;5039724;28;20459;-83
2023/07/23 11:16:48;;;;;;;3.83;2.90;;;19.60;99.90;;;;;;5042255;28;20495;-83
2023/07/23 11:19:18;;;;;;;4.30;2.60;;;19.40;99.90;;;;;;5043890;28;20527;-82
2023/07/23 11:21:50;;;;;;;3.80;3.33;;;19.40;99.90;;;;;;5030659;28;20476;-84
2023/07/23 11:24:17;;;;;;;3.27;2.83;;;19.50;99.90;;;;;;5040925;28;20456;-84
2023/07/23 11:26:44;;;;;;;3.80;2.93;;;19.60;99.90;;;;;;5041343;28;20460;-83
2023/07/23 11:29:14;;;;;;;4.23;3.10;;;19.60;99.90;;;;;;5033619;28;20552;-83
2023/07/23 11:31:48;;;;;;;2.90;2.37;;;19.50;99.90;;;;;;5040056;28;20483;-83
2023/07/23 11:34:28;;;;;;;2.87;2.60;;;19.50;99.90;;;;;;5041293;28;20453;-83
2023/07/23 11:36:57;;;;;;;3.47;2.97;;;19.50;99.90;;;;;;5038962;28;20451;-80
2023/07/23 11:39:24;;;;;;;3.63;2.80;;;19.30;99.90;;;;;;5034967;28;20509;-85
2023/07/23 11:41:52;;;;;;;2.90;2.60;;;19.30;99.90;;;;;;5032606;28;20928;-83
2023/07/23 11:44:19;;;;;;;3.10;2.60;;;19.30;99.90;;;;;;5040099;28;20509;-82
2023/07/23 11:46:48;;;;;;;3.40;2.93;;;19.20;99.90;;;;;;5025844;28;20838;-82
2023/07/23 11:49:15;;;;;;;3.83;2.50;;;19.20;99.90;;;;;;5039442;28;20463;-84
2023/07/23 11:51:42;;;;;;;3.20;2.80;;;19.10;99.90;;;;;;5025912;28;20516;-84
2023/07/23 11:54:11;;;;;;;3.43;3.13;;;18.90;99.90;;;;;;5040304;28;20449;-84
2023/07/23 11:56:40;;;;;;;3.57;2.73;;;18.80;99.90;;;;;;5033951;28;20479;-84
2023/07/23 11:59:08;;;;;;;2.90;2.63;;;18.70;99.90;;;;;;5030877;28;20453;-83
2023/07/23 12:01:40;;;;;;;2.33;1.80;;;18.70;99.90;;;;;;5045092;28;20461;-84
2023/07/23 12:04:11;;;;;;;3.60;2.90;;;18.70;99.90;;;;;;5044666;28;21031;-83
2023/07/23 12:07:06;;;;;;;3.13;2.70;;;18.60;99.90;;;;;;5042936;28;20464;-84
2023/07/23 12:09:37;;;;;;;3.17;2.83;;;18.60;99.90;;;;;;5041067;28;20460;-82
2023/07/23 12:12:04;;;;;;;3.03;2.73;;;18.70;99.90;;;;;;5026995;28;21097;-80
2023/07/23 12:14:31;;;;;;;2.80;2.50;;;18.70;99.90;;;;;;5023248;28;20473;-82
2023/07/23 12:16:58;;;;;;;4.00;3.23;;;18.60;99.90;;;;;;5023323;28;20966;-81
2023/07/23 12:19:29;;;;;;;3.10;2.80;;;18.60;99.90;;;;;;5041606;28;20899;-81
2023/07/23 12:22:00;;;;;;;2.97;2.67;;;18.60;99.90;;;;;;5040089;28;20555;-84
2023/07/23 12:24:29;;;;;;;3.70;3.10;;;18.60;99.90;;;;;;5027787;28;20561;-83
2023/07/23 12:30:15;;;;;;;3.20;2.80;;;18.60;99.90;;;;;;5026027;28;20460;-80
2023/07/23 12:32:49;;;;;;;3.60;2.17;;;18.70;99.90;;;;;;5040506;28;20972;-80
2023/07/23 12:35:20;;;;;;;3.33;2.90;;;18.70;99.90;;;;;;5038429;28;20460;-78
2023/07/23 12:37:47;;;;;;;4.37;2.80;;;18.70;99.90;;;;;;5039009;28;21132;-81
2023/07/23 12:40:14;;;;;;;3.47;2.70;;;18.70;99.90;;;;;;5039800;28;21039;-82
2023/07/23 12:42:43;;;;;;;3.23;2.93;;;18.60;99.90;;;;;;5039273;28;20488;-81
2023/07/23 12:45:13;;;;;;;3.17;2.73;;;18.60;99.90;;;;;;5029727;28;20457;-80
2023/07/23 12:47:40;;;;;;;2.83;2.47;;;18.70;99.90;;;;;;5032017;28;20455;-82
2023/07/23 12:50:08;;;;;;;4.07;2.63;;;18.60;99.90;;;;;;5053590;28;20485;-80
2023/07/23 12:52:36;;;;;;;4.73;3.40;;;18.60;99.90;;;;;;5031257;28;21256;-82
2023/07/23 12:55:05;;;;;;;4.33;2.73;;;18.60;99.90;;;;;;5026530;28;20536;-80
2023/07/23 12:57:31;;;;;;;3.90;2.67;;;18.60;99.90;;;;;;5037888;28;20460;-83
2023/07/23 13:00:00;;;;;;;4.00;2.50;;;18.60;99.90;;;;;;5037814;28;20461;-81
2023/07/23 13:02:27;;;;;;;7.63;3.20;;;18.50;99.90;;;;;;5038001;28;20465;-83